^^
Meteo Knjazevac Station Historical Data
Daily Summary for January 5, 2021 Units:  Both    English   Metric
Daily Weekly Monthly Yearly Custom
  High: Low: Average:
Temperature: 55.7 °F /  13.2 °C 46.4 °F /  8 °C 49.4 °F /  9.7 °C
Dew Point: 48.2 °F /  9 °C 43 °F /  6.1 °C 45 °F /  7.2 °C
Humidity: 91% 75% 85%
Wind Speed: 3mph /  4.8km/h - 0.7mph /  1.1km/h
Wind Gust: 5mph /  8km/h - -
Wind- - WNW
Pressure: 30.15 in /  1020.9 hPa 30.10 in /  1019.2 hPa -
Precipitation: 0.00 in /  0 mm    
Historical Graphs
 
 
Tabular Data for January 5, 2021
Time Temperature Dew Point Pressure Wind Wind Speed Wind Gust Humidity Rainfall Rate (Hourly) solar Conditions
00:00 55.7 °F /  13.2 °C 47.9 °F /  8.8 °C 30.10in /  1019.2hPa Calm   1mph /  1.6km/h 75% 0.00in /  0mm 0 W/m2
00:10 55.3 °F /  12.9 °C 48.2 °F /  9 °C 30.10in /  1019.2hPa Calm   1mph /  1.6km/h 77% 0.00in /  0mm 0 W/m2
00:20 54.7 °F /  12.6 °C 47.6 °F /  8.7 °C 30.10in /  1019.2hPa Calm   2mph /  3.2km/h 77% 0.00in /  0mm 0 W/m2
00:30 54.1 °F /  12.3 °C 47.1 °F /  8.4 °C 30.10in /  1019.2hPa NW 1mph /  1.6km/h 2mph /  3.2km/h 77% 0.00in /  0mm 0 W/m2
00:40 53.4 °F /  11.9 °C 46.7 °F /  8.2 °C 30.10in /  1019.2hPa West 1mph /  1.6km/h 2mph /  3.2km/h 78% 0.00in /  0mm 0 W/m2
00:50 53.2 °F /  11.8 °C 46.9 °F /  8.3 °C 30.10in /  1019.2hPa WNW 2mph /  3.2km/h 5mph /  8km/h 79% 0.00in /  0mm 0 W/m2
01:00 52.9 °F /  11.6 °C 46.9 °F /  8.3 °C 30.10in /  1019.2hPa West 1mph /  1.6km/h 4mph /  6.4km/h 80% 0.00in /  0mm 0 W/m2
01:10 52.9 °F /  11.6 °C 46.9 °F /  8.3 °C 30.10in /  1019.2hPa WNW 1mph /  1.6km/h 2mph /  3.2km/h 80% 0.00in /  0mm 0 W/m2
01:20 52.3 °F /  11.3 °C 46.4 °F /  8 °C 30.10in /  1019.2hPa WNW 1mph /  1.6km/h 3mph /  4.8km/h 80% 0.00in /  0mm 0 W/m2
01:30 52.2 °F /  11.2 °C 46.2 °F /  7.9 °C 30.10in /  1019.2hPa WNW 1mph /  1.6km/h 3mph /  4.8km/h 80% 0.00in /  0mm 0 W/m2
01:40 51.8 °F /  11 °C 45.8 °F /  7.7 °C 30.10in /  1019.2hPa Calm   2mph /  3.2km/h 80% 0.00in /  0mm 0 W/m2
01:50 51.3 °F /  10.7 °C 45.7 °F /  7.6 °C 30.10in /  1019.2hPa Calm   2mph /  3.2km/h 81% 0.00in /  0mm 0 W/m2
02:00 51.1 °F /  10.6 °C 46.1 °F /  7.8 °C 30.10in /  1019.2hPa WNW 2mph /  3.2km/h 4mph /  6.4km/h 83% 0.00in /  0mm 0 W/m2
02:10 51.1 °F /  10.6 °C 46.1 °F /  7.8 °C 30.10in /  1019.2hPa West 1mph /  1.6km/h 4mph /  6.4km/h 83% 0.00in /  0mm 0 W/m2
02:20 50.6 °F /  10.3 °C 45.7 °F /  7.6 °C 30.10in /  1019.2hPa WNW 2mph /  3.2km/h 3mph /  4.8km/h 83% 0.00in /  0mm 0 W/m2
02:30 50.5 °F /  10.3 °C 45.9 °F /  7.7 °C 30.11in /  1019.5hPa WNW 1mph /  1.6km/h 4mph /  6.4km/h 84% 0.00in /  0mm 0 W/m2
02:40 50.2 °F /  10.1 °C 45.2 °F /  7.3 °C 30.11in /  1019.5hPa Calm   1mph /  1.6km/h 83% 0.00in /  0mm 0 W/m2
02:50 49.8 °F /  9.9 °C 44.9 °F /  7.2 °C 30.11in /  1019.5hPa Calm   2mph /  3.2km/h 83% 0.00in /  0mm 0 W/m2
03:00 49.6 °F /  9.8 °C 44.9 °F /  7.2 °C 30.11in /  1019.5hPa Calm   2mph /  3.2km/h 84% 0.00in /  0mm 0 W/m2
03:10 49.5 °F /  9.7 °C 44.8 °F /  7.1 °C 30.11in /  1019.5hPa Calm   2mph /  3.2km/h 84% 0.00in /  0mm 0 W/m2
03:20 49.1 °F /  9.5 °C 44.8 °F /  7.1 °C 30.11in /  1019.5hPa Calm   2mph /  3.2km/h 85% 0.00in /  0mm 0 W/m2
03:30 49.1 °F /  9.5 °C 44.8 °F /  7.1 °C 30.12in /  1019.9hPa Calm   2mph /  3.2km/h 85% 0.00in /  0mm 0 W/m2
03:40 48.8 °F /  9.3 °C 44.5 °F /  6.9 °C 30.12in /  1019.9hPa Calm   1mph /  1.6km/h 85% 0.00in /  0mm 0 W/m2
03:50 48.6 °F /  9.2 °C 44.3 °F /  6.8 °C 30.12in /  1019.9hPa WSW 1mph /  1.6km/h 2mph /  3.2km/h 85% 0.00in /  0mm 0 W/m2
04:00 48.3 °F /  9.1 °C 44.3 °F /  6.8 °C 30.12in /  1019.9hPa West 2mph /  3.2km/h 3mph /  4.8km/h 86% 0.00in /  0mm 0 W/m2
04:10 48.2 °F /  9 °C 44.2 °F /  6.8 °C 30.12in /  1019.9hPa WNW 1mph /  1.6km/h 3mph /  4.8km/h 86% 0.00in /  0mm 0 W/m2
04:20 48 °F /  8.9 °C 44 °F /  6.7 °C 30.12in /  1019.9hPa Calm   2mph /  3.2km/h 86% 0.00in /  0mm 0 W/m2
04:30 48 °F /  8.9 °C 44 °F /  6.7 °C 30.12in /  1019.9hPa WNW 1mph /  1.6km/h 2mph /  3.2km/h 86% 0.00in /  0mm 0 W/m2
04:40 47.8 °F /  8.8 °C 44.5 °F /  6.9 °C 30.12in /  1019.9hPa West 2mph /  3.2km/h 3mph /  4.8km/h 88% 0.00in /  0mm 0 W/m2
04:50 47.8 °F /  8.8 °C 44.5 °F /  6.9 °C 30.12in /  1019.9hPa Calm   4mph /  6.4km/h 88% 0.00in /  0mm 0 W/m2
05:00 47.5 °F /  8.6 °C 43.5 °F /  6.4 °C 30.12in /  1019.9hPa Calm   2mph /  3.2km/h 86% 0.00in /  0mm 0 W/m2
05:10 47.3 °F /  8.5 °C 43.3 °F /  6.3 °C 30.12in /  1019.9hPa Calm     86% 0.00in /  0mm 0 W/m2
05:20 46.9 °F /  8.3 °C 43 °F /  6.1 °C 30.12in /  1019.9hPa NW 1mph /  1.6km/h 1mph /  1.6km/h 86% 0.00in /  0mm 0 W/m2
05:30 46.8 °F /  8.2 °C 43.4 °F /  6.3 °C 30.12in /  1019.9hPa NW 1mph /  1.6km/h 2mph /  3.2km/h 88% 0.00in /  0mm 0 W/m2
05:40 46.4 °F /  8 °C 43 °F /  6.1 °C 30.12in /  1019.9hPa Calm   1mph /  1.6km/h 88% 0.00in /  0mm 0 W/m2
05:50 46.4 °F /  8 °C 43.3 °F /  6.3 °C 30.13in /  1020.2hPa WNW 2mph /  3.2km/h 3mph /  4.8km/h 89% 0.00in /  0mm 0 W/m2
06:00 46.4 °F /  8 °C 43.6 °F /  6.4 °C 30.13in /  1020.2hPa West 3mph /  4.8km/h 5mph /  8km/h 90% 0.00in /  0mm 3 W/m2
06:10 46.4 °F /  8 °C 43.6 °F /  6.4 °C 30.13in /  1020.2hPa Calm   4mph /  6.4km/h 90% 0.00in /  0mm 12 W/m2
06:20 46.6 °F /  8.1 °C 43.8 °F /  6.6 °C 30.13in /  1020.2hPa WNW 1mph /  1.6km/h 2mph /  3.2km/h 90% 0.00in /  0mm 23 W/m2
06:30 46.4 °F /  8 °C 43.3 °F /  6.3 °C 30.14in /  1020.5hPa Calm   2mph /  3.2km/h 89% 0.00in /  0mm 35 W/m2
06:40 46.4 °F /  8 °C 43.3 °F /  6.3 °C 30.14in /  1020.5hPa Calm   2mph /  3.2km/h 89% 0.00in /  0mm 48 W/m2
06:50 46.4 °F /  8 °C 43.3 °F /  6.3 °C 30.14in /  1020.5hPa NW 1mph /  1.6km/h 2mph /  3.2km/h 89% 0.00in /  0mm 81 W/m2
07:00 46.6 °F /  8.1 °C 43.8 °F /  6.6 °C 30.14in /  1020.5hPa WNW 2mph /  3.2km/h 3mph /  4.8km/h 90% 0.00in /  0mm 104 W/m2
07:10 46.9 °F /  8.3 °C 44.4 °F /  6.9 °C 30.14in /  1020.5hPa WNW 1mph /  1.6km/h 3mph /  4.8km/h 91% 0.00in /  0mm 129 W/m2
07:20 47.4 °F /  8.6 °C 44.9 °F /  7.2 °C 30.14in /  1020.5hPa Calm   2mph /  3.2km/h 91% 0.00in /  0mm 152 W/m2
07:30 47.8 °F /  8.8 °C 45.3 °F /  7.4 °C 30.15in /  1020.9hPa West 1mph /  1.6km/h 2mph /  3.2km/h 91% 0.00in /  0mm 184 W/m2
Knjazevac, Serbia
Compliments of Weather Underground - 2 mb